Time;durP1;ratioP1;P1;durP2;ratioP2;P2;SDS_P1;SDS_P2;PMS_P1;PMS_P2;Temp;Humidity;BMP_temperature;BMP_pressure;BME280_temperature;BME280_humidity;BME280_pressure;Samples;Min_cycle;Max_cycle;Signal;HPM_P1;HPM_P2
2024/04/23 00:02:21;;;;;;;;;;;2.90;99.90;;;;;;22832625;26;19935;-76
2024/04/23 00:12:22;;;;;;;;;;;2.80;99.90;;;;;;22848089;26;20435;-76
2024/04/23 00:22:23;;;;;;;;;;;2.60;99.90;;;;;;22853068;26;19928;-75
2024/04/23 00:32:23;;;;;;;;;;;2.50;99.90;;;;;;22840239;26;19927;-76
2024/04/23 00:42:24;;;;;;;;;;;2.40;99.90;;;;;;22852942;26;19996;-75
2024/04/23 00:52:25;;;;;;;;;;;2.40;99.90;;;;;;22848362;26;19960;-75
2024/04/23 01:02:26;;;;;;;;;;;2.50;99.90;;;;;;22835588;26;20274;-76
2024/04/23 01:12:26;;;;;;;;;;;2.50;99.90;;;;;;22848040;26;19927;-75
2024/04/23 01:22:42;;;;;;;;;;;2.30;99.90;;;;;;22835832;26;19927;-75
2024/04/23 01:32:43;;;;;;;;;;;2.20;99.90;;;;;;22846555;26;19934;-75
2024/04/23 01:42:44;;;;;;;;;;;2.00;99.90;;;;;;22834582;26;19963;-75
2024/04/23 01:52:45;;;;;;;;;;;2.00;99.90;;;;;;22860986;26;19932;-76
2024/04/23 02:02:47;;;;;;;;;;;2.10;99.90;;;;;;22872344;26;19942;-75
2024/04/23 02:12:47;;;;;;;;;;;1.90;99.90;;;;;;22875186;26;19927;-75
2024/04/23 02:22:48;;;;;;;;;;;1.60;99.90;;;;;;22847396;26;20355;-76
2024/04/23 02:32:49;;;;;;;;;;;1.60;99.90;;;;;;22875335;26;20283;-76
2024/04/23 02:42:50;;;;;;;;;;;1.70;99.90;;;;;;22833062;26;19934;-76
2024/04/23 02:52:50;;;;;;;;;;;1.60;99.90;;;;;;22799906;26;19927;-75
2024/04/23 03:02:51;;;;;;;;;;;1.50;99.90;;;;;;22844253;26;19935;-75
2024/04/23 03:12:51;;;;;;;;;;;1.30;99.90;;;;;;22871697;26;20382;-75
2024/04/23 03:22:52;;;;;;;;;;;1.10;99.90;;;;;;22856807;26;19928;-75
2024/04/23 03:32:53;;;;;;;;;;;1.20;99.90;;;;;;22857211;26;19978;-75
2024/04/23 03:42:53;;;;;;;;;;;1.30;99.90;;;;;;22843610;26;19938;-76
2024/04/23 03:52:54;;;;;;;;;;;1.20;99.90;;;;;;22843283;26;19959;-76
2024/04/23 04:13:14;;;;;;;;;;;1.20;99.90;;;;;;22853874;26;19928;-76
2024/04/23 04:23:15;;;;;;;;;;;1.10;99.90;;;;;;22789633;26;19935;-76
2024/04/23 04:33:15;;;;;;;;;;;1.10;99.90;;;;;;22829429;26;19944;-76
2024/04/23 04:43:16;;;;;;;;;;;1.20;99.90;;;;;;22725409;26;19936;-76
2024/04/23 04:53:17;;;;;;;;;;;1.30;99.90;;;;;;22735170;26;19939;-76
2024/04/23 05:03:18;;;;;;;;;;;1.50;99.90;;;;;;22797390;26;20383;-76
2024/04/23 05:13:18;;;;;;;;;;;1.60;99.90;;;;;;22783612;26;19938;-76
2024/04/23 05:23:19;;;;;;;;;;;1.80;99.90;;;;;;22790260;26;19927;-76
2024/04/23 05:33:19;;;;;;;;;;;1.90;99.90;;;;;;22826278;26;20337;-75
2024/04/23 05:43:20;;;;;;;;;;;1.90;99.90;;;;;;22753199;26;19936;-75
2024/04/23 05:53:39;;;;;;;;;;;1.90;99.90;;;;;;22766422;26;19939;-76
2024/04/23 06:03:59;;;;;;;;;;;2.00;99.90;;;;;;22836542;26;19928;-77
2024/04/23 06:14:06;;;;;;;;;;;2.20;99.90;;;;;;22828250;26;19934;-76
2024/04/23 06:24:07;;;;;;;;;;;2.20;99.90;;;;;;22855975;26;19934;-76
2024/04/23 06:34:07;;;;;;;;;;;2.30;99.90;;;;;;22720017;26;20259;-76
2024/04/23 06:44:08;;;;;;;;;;;2.90;99.90;;;;;;22832065;26;19934;-76
2024/04/23 06:54:09;;;;;;;;;;;2.90;99.90;;;;;;22858186;26;19934;-77
2024/04/23 07:04:11;;;;;;;;;;;3.00;99.90;;;;;;22870227;26;19927;-75
2024/04/23 07:14:11;;;;;;;;;;;3.40;99.90;;;;;;22869990;26;20373;-76
2024/04/23 07:24:12;;;;;;;;;;;3.60;99.90;;;;;;22839272;26;19931;-77
2024/04/23 07:34:13;;;;;;;;;;;4.00;99.90;;;;;;22847962;26;19928;-77
2024/04/23 07:44:13;;;;;;;;;;;4.20;99.90;;;;;;22738369;26;19927;-76
2024/04/23 07:54:14;;;;;;;;;;;4.30;99.90;;;;;;22834719;26;19928;-76
2024/04/23 08:04:14;;;;;;;;;;;4.90;99.90;;;;;;22868377;26;19936;-76
2024/04/23 08:14:15;;;;;;;;;;;5.10;99.90;;;;;;22853381;26;19927;-77
2024/04/23 08:24:16;;;;;;;;;;;5.70;99.90;;;;;;22866479;26;19934;-77
2024/04/23 08:34:16;;;;;;;;;;;6.20;99.90;;;;;;22864782;26;19927;-76
2024/04/23 08:44:18;;;;;;;;;;;7.00;99.90;;;;;;22863842;26;19928;-77
2024/04/23 08:54:19;;;;;;;;;;;7.50;99.90;;;;;;22809093;26;19996;-76
2024/04/23 09:04:21;;;;;;;;;;;7.30;99.90;;;;;;22809335;26;20649;-77
2024/04/23 09:14:21;;;;;;;;;;;7.00;99.90;;;;;;22845375;26;19938;-75
2024/04/23 09:24:30;;;;;;;;;;;6.70;99.90;;;;;;22844583;26;19931;-76
2024/04/23 09:34:31;;;;;;;;;;;5.60;99.90;;;;;;22769324;26;20373;-76
2024/04/23 09:44:31;;;;;;;;;;;5.70;99.90;;;;;;22863063;26;19928;-76
2024/04/23 09:54:38;;;;;;;;;;;5.10;99.90;;;;;;22841704;26;20347;-76
2024/04/23 10:04:39;;;;;;;;;;;5.20;99.90;;;;;;22765750;26;19935;-77
2024/04/23 10:14:44;;;;;;;;;;;5.20;99.90;;;;;;22815181;26;19939;-77
2024/04/23 10:24:44;;;;;;;;;;;5.30;99.90;;;;;;22823959;26;20658;-76
2024/04/23 10:34:46;;;;;;;;;;;5.20;99.90;;;;;;22812857;26;19975;-76
2024/04/23 10:44:47;;;;;;;;;;;5.30;99.90;;;;;;22791185;26;19927;-77
2024/04/23 10:54:49;;;;;;;;;;;5.70;99.90;;;;;;22862940;26;19927;-76
2024/04/23 11:04:50;;;;;;;;;;;5.50;99.90;;;;;;22795805;26;19999;-76
2024/04/23 11:14:51;;;;;;;;;;;5.60;99.90;;;;;;22819839;26;19928;-76
2024/04/23 11:24:52;;;;;;;;;;;5.30;99.90;;;;;;22855476;26;19931;-75
2024/04/23 11:34:53;;;;;;;;;;;5.50;99.90;;;;;;22838022;26;19935;-76
2024/04/23 11:45:03;;;;;;;;;;;5.50;99.90;;;;;;22809242;26;19928;-76
2024/04/23 11:55:07;;;;;;;;;;;5.70;99.90;;;;;;22804687;26;19940;-76
2024/04/23 12:05:08;;;;;;;;;;;5.90;99.90;;;;;;22779389;26;20331;-76
2024/04/23 12:15:09;;;;;;;;;;;6.10;99.90;;;;;;22852250;26;19939;-76
2024/04/23 12:25:16;;;;;;;;;;;6.40;99.90;;;;;;22826494;26;19927;-79
2024/04/23 12:35:22;;;;;;;;;;;6.30;99.90;;;;;;22895037;26;19942;-79
2024/04/23 12:45:23;;;;;;;;;;;6.90;99.90;;;;;;22853562;26;19927;-79
2024/04/23 12:55:25;;;;;;;;;;;7.20;99.90;;;;;;22909468;26;19934;-81
2024/04/23 13:05:26;;;;;;;;;;;7.80;99.90;;;;;;22772868;26;19959;-77
2024/04/23 13:15:26;;;;;;;;;;;7.50;99.90;;;;;;22764416;26;19956;-76
2024/04/23 13:25:28;;;;;;;;;;;7.50;99.90;;;;;;22802180;26;19935;-77
2024/04/23 13:35:28;;;;;;;;;;;7.10;99.90;;;;;;22820708;26;19928;-79
2024/04/23 13:45:30;;;;;;;;;;;7.00;99.90;;;;;;22824968;26;19939;-79
2024/04/23 13:55:31;;;;;;;;;;;6.80;99.90;;;;;;22870504;26;19934;-78
2024/04/23 14:05:34;;;;;;;;;;;6.70;99.90;;;;;;22790721;26;19927;-78
2024/04/23 14:15:35;;;;;;;;;;;6.60;99.90;;;;;;22726954;26;19928;-79
2024/04/23 14:25:35;;;;;;;;;;;7.00;99.90;;;;;;22725256;26;19935;-79
2024/04/23 14:35:36;;;;;;;;;;;7.70;99.90;;;;;;22726746;26;20027;-79
2024/04/23 14:45:37;;;;;;;;;;;7.90;99.90;;;;;;22727274;26;19968;-78
2024/04/23 14:55:37;;;;;;;;;;;8.70;99.90;;;;;;22721928;26;19964;-78
2024/04/23 15:05:38;;;;;;;;;;;9.00;99.90;;;;;;22721012;26;19935;-79
2024/04/23 15:15:39;;;;;;;;;;;8.60;99.90;;;;;;22793986;26;19992;-79
2024/04/23 15:25:40;;;;;;;;;;;8.60;99.90;;;;;;22874197;26;19934;-79
2024/04/23 15:35:41;;;;;;;;;;;8.60;99.90;;;;;;22852475;26;19927;-78
2024/04/23 15:45:42;;;;;;;;;;;8.50;99.90;;;;;;22865308;26;19939;-79
2024/04/23 15:55:44;;;;;;;;;;;8.50;99.90;;;;;;22812345;26;19936;-79
2024/04/23 16:05:44;;;;;;;;;;;7.80;99.90;;;;;;22719106;26;20395;-78
2024/04/23 16:15:45;;;;;;;;;;;7.60;99.90;;;;;;22865157;26;19934;-78
2024/04/23 16:25:46;;;;;;;;;;;7.30;99.90;;;;;;22867072;26;19934;-78
2024/04/23 16:35:48;;;;;;;;;;;6.90;99.90;;;;;;22865893;26;19934;-78
2024/04/23 16:45:48;;;;;;;;;;;7.00;99.90;;;;;;22814790;26;19939;-78
2024/04/23 16:55:49;;;;;;;;;;;7.00;99.90;;;;;;22832438;26;19977;-79
2024/04/23 17:05:50;;;;;;;;;;;6.90;99.90;;;;;;22865461;26;20367;-78
2024/04/23 17:15:50;;;;;;;;;;;6.90;99.90;;;;;;22868884;26;20054;-78
2024/04/23 17:25:51;;;;;;;;;;;6.80;99.90;;;;;;22865158;26;20362;-78
2024/04/23 17:35:55;;;;;;;;;;;6.50;99.90;;;;;;22843870;26;19945;-78
2024/04/23 17:45:59;;;;;;;;;;;6.40;99.90;;;;;;22795440;26;19990;-78
2024/04/23 17:56:01;;;;;;;;;;;6.10;99.90;;;;;;22858788;26;19927;-78
2024/04/23 18:06:02;;;;;;;;;;;5.90;99.90;;;;;;22737705;26;19996;-79
2024/04/23 18:16:03;;;;;;;;;;;5.90;99.90;;;;;;22766800;26;19927;-79
2024/04/23 18:26:09;;;;;;;;;;;6.00;99.90;;;;;;22839617;26;19939;-78
2024/04/23 18:36:10;;;;;;;;;;;5.70;99.90;;;;;;22836451;26;19934;-79
2024/04/23 18:46:11;;;;;;;;;;;5.40;99.90;;;;;;22869165;26;19927;-78
2024/04/23 18:56:16;;;;;;;;;;;5.40;99.90;;;;;;22869323;26;20235;-78
2024/04/23 19:06:17;;;;;;;;;;;5.50;99.90;;;;;;22869034;25;19939;-78
2024/04/23 19:16:18;;;;;;;;;;;5.60;99.90;;;;;;22830644;26;19928;-78
2024/04/23 19:26:19;;;;;;;;;;;5.60;99.90;;;;;;22868837;26;19931;-79
2024/04/23 19:36:21;;;;;;;;;;;5.60;99.90;;;;;;22873963;26;20000;-79
2024/04/23 19:46:25;;;;;;;;;;;5.40;99.90;;;;;;22859085;26;20440;-79
2024/04/23 19:56:34;;;;;;;;;;;5.30;99.90;;;;;;22863790;26;19927;-79
2024/04/23 20:06:34;;;;;;;;;;;5.50;99.90;;;;;;22874607;26;19940;-79
2024/04/23 20:16:35;;;;;;;;;;;5.30;99.90;;;;;;22826599;26;19996;-80
2024/04/23 20:26:36;;;;;;;;;;;5.10;99.90;;;;;;22814412;26;19928;-79
2024/04/23 20:36:36;;;;;;;;;;;5.00;99.90;;;;;;22824422;26;19953;-79
2024/04/23 20:46:37;;;;;;;;;;;4.90;99.90;;;;;;22810617;26;20386;-79
2024/04/23 20:56:38;;;;;;;;;;;5.00;99.90;;;;;;22814861;26;20390;-77
2024/04/23 21:06:39;;;;;;;;;;;5.00;99.90;;;;;;22810614;26;19927;-77
2024/04/23 21:16:39;;;;;;;;;;;4.90;99.90;;;;;;22799456;26;19928;-77
2024/04/23 21:26:40;;;;;;;;;;;4.80;99.90;;;;;;22810056;26;19927;-78
2024/04/23 21:36:41;;;;;;;;;;;4.50;99.90;;;;;;22825490;26;19954;-78
2024/04/23 21:46:41;;;;;;;;;;;4.40;99.90;;;;;;22800226;26;19935;-77
2024/04/23 21:56:42;;;;;;;;;;;4.50;99.90;;;;;;22778464;26;19995;-78
2024/04/23 22:06:43;;;;;;;;;;;4.00;99.90;;;;;;22796141;26;19935;-78
2024/04/23 22:16:44;;;;;;;;;;;3.80;99.90;;;;;;22816290;26;20037;-78
2024/04/23 22:26:44;;;;;;;;;;;3.80;99.90;;;;;;22822447;26;20381;-77
2024/04/23 22:36:45;;;;;;;;;;;3.50;99.90;;;;;;22809556;26;19928;-77
2024/04/23 22:46:45;;;;;;;;;;;3.30;99.90;;;;;;22820090;26;19927;-77
2024/04/23 22:56:46;;;;;;;;;;;2.90;99.90;;;;;;22809160;26;19928;-77
2024/04/23 23:06:47;;;;;;;;;;;2.30;99.90;;;;;;22824449;26;19935;-78
2024/04/23 23:16:50;;;;;;;;;;;1.90;99.90;;;;;;22809826;26;19927;-78
2024/04/23 23:26:50;;;;;;;;;;;2.10;99.90;;;;;;22820600;26;19939;-78
2024/04/23 23:36:51;;;;;;;;;;;1.60;99.90;;;;;;22819055;26;19996;-77
2024/04/23 23:46:52;;;;;;;;;;;1.40;99.90;;;;;;22806210;26;19973;-76
2024/04/23 23:56:53;;;;;;;;;;;1.30;99.90;;;;;;22815320;26;20422;-76
